Time;durP1;ratioP1;P1;durP2;ratioP2;P2;SDS_P1;SDS_P2;PMS_P1;PMS_P2;Temp;Humidity;BMP_temperature;BMP_pressure;BME280_temperature;BME280_humidity;BME280_pressure;Samples;Min_cycle;Max_cycle;Signal;HPM_P1;HPM_P2
2023/01/29 00:01:03;;;;;;;9.93;5.47;;;0.00;99.90;1.10;97361.00;;;;5030962;28;20436;-85
2023/01/29 00:03:52;;;;;;;14.60;7.40;;;0.70;99.90;1.20;97361.00;;;;5043879;28;20494;-86
2023/01/29 00:06:41;;;;;;;12.10;8.20;;;0.80;99.90;1.20;97357.00;;;;5051848;28;20493;-84
2023/01/29 00:09:30;;;;;;;19.33;10.37;;;-0.10;99.90;1.20;97359.00;;;;5048795;28;20519;-84
2023/01/29 00:12:19;;;;;;;19.60;11.10;;;-0.10;99.90;1.20;97367.00;;;;5042995;28;20510;-86
2023/01/29 00:15:10;;;;;;;21.83;13.83;;;1.00;99.90;1.30;97368.00;;;;5030481;28;20506;-85
2023/01/29 00:17:58;;;;;;;21.40;14.13;;;0.00;99.90;1.30;97363.00;;;;5025437;28;20424;-85
2023/01/29 00:20:47;;;;;;;28.53;15.20;;;0.00;99.90;1.30;97356.00;;;;5031570;28;20470;-87
2023/01/29 00:23:36;;;;;;;29.83;14.17;;;1.90;99.90;1.20;97361.00;;;;5032272;28;20451;-85
2023/01/29 00:26:25;;;;;;;31.80;16.70;;;0.90;99.90;1.30;97361.00;;;;5032707;28;20476;-86
2023/01/29 00:29:13;;;;;;;31.00;15.67;;;0.00;99.90;1.20;97371.00;;;;5031084;28;20773;-86
2023/01/29 00:32:04;;;;;;;16.83;10.57;;;0.80;99.90;1.10;97358.00;;;;5031888;28;20444;-85
2023/01/29 00:34:53;;;;;;;14.60;8.03;;;0.00;99.90;1.20;97372.00;;;;5017459;28;20539;-85
2023/01/29 00:37:41;;;;;;;12.97;8.17;;;0.90;99.90;1.20;97370.00;;;;5011011;28;20428;-85
2023/01/29 00:44:56;;;;;;;13.93;8.03;;;0.00;99.90;1.20;97378.00;;;;5011788;28;20994;-86
2023/01/29 00:46:46;;;;;;;29.17;16.03;;;1.10;99.90;1.30;97380.00;;;;5023687;28;21005;-85
2023/01/29 00:49:36;;;;;;;28.50;14.83;;;0.00;99.90;1.30;97383.00;;;;5030113;28;20814;-87
2023/01/29 00:52:25;;;;;;;24.90;15.77;;;0.00;99.90;1.30;97389.00;;;;5031176;28;21040;-86
2023/01/29 00:55:13;;;;;;;27.23;16.27;;;0.00;99.90;1.30;97363.00;;;;5030961;28;20479;-87
2023/01/29 00:58:02;;;;;;;21.67;13.93;;;0.00;99.90;1.20;97366.00;;;;5029590;28;20479;-87
2023/01/29 01:00:51;;;;;;;29.27;16.00;;;0.00;99.90;1.20;97377.00;;;;5031691;28;20417;-84
2023/01/29 01:03:41;;;;;;;23.07;13.77;;;0.90;99.90;1.20;97370.00;;;;5024782;28;20448;-85
2023/01/29 01:06:31;;;;;;;17.63;13.57;;;0.00;99.90;1.30;97372.00;;;;5018013;28;20431;-86
2023/01/29 01:12:26;;;;;;;29.53;15.57;;;1.60;99.90;1.30;97355.00;;;;5042974;28;20579;-88
2023/01/29 01:15:14;;;;;;;16.43;10.90;;;0.80;99.90;1.20;97377.00;;;;5041540;28;20990;-86
2023/01/29 01:18:04;;;;;;;25.47;12.97;;;2.70;99.90;1.20;97382.00;;;;5049365;28;20431;-85
2023/01/29 01:20:58;;;;;;;21.67;12.10;;;0.30;99.90;1.20;97381.00;;;;5051682;28;20530;-86
2023/01/29 01:23:50;;;;;;;18.93;11.63;;;0.70;99.90;1.30;97388.00;;;;5036859;28;20424;-85
2023/01/29 01:26:39;;;;;;;22.13;11.10;;;0.00;99.90;1.20;97385.00;;;;5040684;28;20997;-86
2023/01/29 01:29:28;;;;;;;22.37;12.80;;;0.00;99.90;1.20;97386.00;;;;5033354;28;20439;-87
2023/01/29 01:32:17;;;;;;;18.17;11.03;;;0.00;99.90;1.20;97399.00;;;;5049347;28;20455;-85
2023/01/29 01:35:08;;;;;;;21.47;11.23;;;1.20;99.90;1.20;97403.00;;;;5030416;28;20821;-87
2023/01/29 01:37:56;;;;;;;21.17;11.13;;;0.00;99.90;1.20;97395.00;;;;5048467;28;20431;-85
2023/01/29 01:40:47;;;;;;;20.77;13.33;;;0.00;99.90;1.20;97395.00;;;;5050719;28;20431;-84
2023/01/29 01:43:51;;;;;;;22.67;13.07;;;2.00;99.90;1.20;97396.00;;;;5017839;28;20417;-84
2023/01/29 01:46:39;;;;;;;19.53;13.43;;;0.60;99.90;1.20;97398.00;;;;5020456;28;20439;-86
2023/01/29 01:49:28;;;;;;;25.83;14.77;;;0.80;99.90;1.20;97399.00;;;;5028182;28;20459;-85
2023/01/29 01:52:19;;;;;;;25.00;14.57;;;0.00;99.90;1.20;97395.00;;;;5039063;28;20974;-87
2023/01/29 01:55:12;;;;;;;18.03;10.37;;;0.80;99.90;1.10;97398.00;;;;5048207;28;20428;-85
2023/01/29 01:58:09;;;;;;;18.50;12.23;;;-0.10;99.90;1.10;97390.00;;;;5047934;28;21000;-86
2023/01/29 02:00:58;;;;;;;23.00;15.60;;;-0.10;99.90;1.20;97405.00;;;;5048365;28;20463;-86
2023/01/29 02:10:17;;;;;;;32.97;16.90;;;0.50;99.90;1.10;97416.00;;;;5038719;28;20439;-85
2023/01/29 02:13:08;;;;;;;19.23;11.23;;;0.00;99.90;1.00;97415.00;;;;5039997;28;20922;-87
2023/01/29 02:15:56;;;;;;;20.57;12.97;;;0.20;99.90;1.10;97411.00;;;;5047850;28;20533;-87
2023/01/29 02:18:45;;;;;;;17.83;10.77;;;-0.10;99.90;1.00;97417.00;;;;5038538;28;20438;-84
2023/01/29 02:22:09;;;;;;;18.23;11.37;;;0.00;99.90;1.00;97416.00;;;;5049629;28;20455;-84
2023/01/29 02:25:14;;;;;;;19.37;11.47;;;-0.20;99.90;1.10;97427.00;;;;5018659;28;20444;-85
2023/01/29 02:28:17;;;;;;;20.80;11.60;;;0.70;99.90;1.00;97424.00;;;;5040653;28;21216;-87
2023/01/29 02:31:13;;;;;;;21.90;12.83;;;0.50;99.90;1.00;97419.00;;;;5044992;28;20451;-84
2023/01/29 02:34:14;;;;;;;21.43;12.77;;;-0.20;99.90;1.00;97420.00;;;;5035762;28;20436;-85
2023/01/29 02:37:09;;;;;;;21.07;12.30;;;-0.20;99.90;1.00;97426.00;;;;5030490;28;20472;-85
2023/01/29 02:40:08;;;;;;;21.83;12.60;;;0.60;99.90;0.90;97429.00;;;;5040525;28;20435;-84
2023/01/29 02:43:08;;;;;;;17.13;11.80;;;-0.20;99.90;1.00;97438.00;;;;5030961;28;20865;-85
2023/01/29 02:46:05;;;;;;;15.50;10.67;;;1.00;99.90;0.90;97445.00;;;;5017838;28;20429;-85
2023/01/29 02:48:59;;;;;;;17.53;11.07;;;0.40;99.90;1.00;97436.00;;;;5038779;28;20774;-84
2023/01/29 02:51:55;;;;;;;20.67;11.80;;;-0.20;99.90;0.80;97443.00;;;;5028376;28;20443;-84
2023/01/29 02:54:51;;;;;;;11.67;9.43;;;-0.20;99.90;0.80;97440.00;;;;5049862;28;20423;-85
2023/01/29 02:57:43;;;;;;;20.17;11.80;;;1.20;99.90;0.90;97441.00;;;;5044525;28;20994;-85
2023/01/29 03:00:38;;;;;;;16.57;10.67;;;-0.20;99.90;0.90;97439.00;;;;5046057;28;20427;-85
2023/01/29 03:03:33;;;;;;;17.83;9.73;;;-0.30;99.90;0.90;97442.00;;;;5041955;28;20470;-85
2023/01/29 03:06:27;;;;;;;21.20;13.07;;;0.30;99.90;0.90;97440.00;;;;5039719;28;20496;-85
2023/01/29 03:09:24;;;;;;;21.23;13.13;;;1.00;99.90;0.90;97437.00;;;;5034719;28;20432;-86
2023/01/29 03:12:32;;;;;;;20.37;10.80;;;1.10;99.90;0.90;97435.00;;;;5045825;28;20828;-86
2023/01/29 03:15:29;;;;;;;20.60;12.33;;;-0.30;99.90;0.90;97453.00;;;;5028668;28;20435;-86
2023/01/29 03:18:24;;;;;;;31.43;13.93;;;0.70;99.90;0.90;97454.00;;;;5037355;28;20435;-85
2023/01/29 03:34:22;;;;;;;17.77;10.87;;;0.70;99.90;0.50;97450.00;;;;5038012;28;21043;-86
2023/01/29 03:37:17;;;;;;;21.20;10.93;;;0.50;99.90;0.40;97448.00;;;;5031227;28;20460;-84
2023/01/29 03:40:10;;;;;;;20.30;11.73;;;0.10;99.90;0.30;97448.00;;;;5034238;28;20432;-85
2023/01/29 03:43:10;;;;;;;19.93;11.33;;;-0.60;99.90;0.30;97447.00;;;;5049919;28;20451;-86
2023/01/29 03:46:07;;;;;;;16.00;11.00;;;1.40;99.90;0.20;97453.00;;;;5021083;28;20444;-85
2023/01/29 03:49:07;;;;;;;18.07;12.33;;;1.10;99.90;0.00;97450.00;;;;5026145;28;20424;-87
2023/01/29 03:52:04;;;;;;;16.53;10.37;;;-0.90;99.90;-0.20;97442.00;;;;5052275;28;21040;-84
2023/01/29 03:55:05;;;;;;;20.53;9.43;;;-1.00;99.90;-0.40;97442.00;;;;5052332;28;21210;-87
2023/01/29 03:57:58;;;;;;;12.00;9.27;;;-0.60;99.90;-0.30;97435.00;;;;5047713;28;20478;-85
2023/01/29 04:00:56;;;;;;;18.93;10.67;;;-0.30;99.90;-0.30;97449.00;;;;5051411;28;20478;-86
2023/01/29 04:03:50;;;;;;;9.20;7.17;;;0.00;99.90;-0.80;97448.00;;;;5043653;28;20811;-87
2023/01/29 04:06:44;;;;;;;13.37;8.60;;;1.10;99.90;-0.60;97456.00;;;;5021677;28;20424;-86
2023/01/29 04:09:42;;;;;;;16.50;10.37;;;-0.50;99.90;-0.60;97457.00;;;;5028831;28;20439;-85
2023/01/29 04:12:38;;;;;;;13.33;8.73;;;0.00;99.90;-0.60;97456.00;;;;5034347;28;20448;-87
2023/01/29 04:15:31;;;;;;;12.70;8.67;;;1.00;99.90;-0.80;97456.00;;;;5039030;28;20834;-86
2023/01/29 04:18:20;;;;;;;13.83;9.70;;;-1.50;99.90;-0.70;97460.00;;;;5020796;28;21235;-87
2023/01/29 04:21:09;;;;;;;16.10;10.20;;;-1.60;99.90;-0.80;97451.00;;;;5038661;28;20443;-86
2023/01/29 04:23:57;;;;;;;13.10;7.90;;;-1.60;99.90;-0.90;97443.00;;;;5037284;28;20427;-88
2023/01/29 04:27:04;;;;;;;12.67;7.37;;;0.00;99.90;-0.70;97452.00;;;;5023173;28;20447;-85
2023/01/29 04:30:19;;;;;;;18.77;9.73;;;-1.70;99.90;-1.00;97449.00;;;;5031784;28;20416;-87
2023/01/29 04:33:23;;;;;;;13.30;8.20;;;-1.80;99.90;-1.20;97442.00;;;;5045782;28;21250;-87
2023/01/29 04:36:28;;;;;;;18.17;9.37;;;-0.60;99.90;-1.20;97450.00;;;;5031442;28;20470;-86
2023/01/29 04:39:23;;;;;;;14.93;9.07;;;-1.90;99.90;-1.20;97450.00;;;;5049294;28;20458;-87
2023/01/29 04:42:24;;;;;;;11.13;9.23;;;-1.90;99.90;-1.20;97448.00;;;;5038759;28;20995;-87
2023/01/29 04:45:21;;;;;;;9.43;7.73;;;-1.10;99.90;-1.30;97448.00;;;;5036919;28;20416;-87
2023/01/29 04:48:19;;;;;;;12.67;8.60;;;-2.10;99.90;-1.40;97448.00;;;;5029489;28;20447;-87
2023/01/29 04:51:17;;;;;;;16.63;10.13;;;-2.10;99.90;-1.60;97452.00;;;;5030685;28;20440;-87
2023/01/29 04:54:18;;;;;;;9.93;7.97;;;-0.60;99.90;-1.60;97446.00;;;;5044104;28;20778;-87
2023/01/29 04:57:16;;;;;;;12.10;7.13;;;0.50;99.90;-1.80;97449.00;;;;5021128;28;20483;-87
2023/01/29 05:00:13;;;;;;;11.47;8.37;;;-2.30;99.90;-1.50;97450.00;;;;5035393;28;20428;-86
2023/01/29 05:03:02;;;;;;;13.23;9.53;;;-2.30;99.90;-1.50;97446.00;;;;5036520;28;20463;-86
2023/01/29 05:05:52;;;;;;;12.60;7.27;;;-2.30;99.90;-1.60;97440.00;;;;5036515;28;21016;-85
2023/01/29 05:08:42;;;;;;;11.73;7.43;;;-2.40;99.90;-1.90;97447.00;;;;5028350;28;20459;-85
2023/01/29 05:11:32;;;;;;;7.33;5.00;;;-2.50;99.90;-2.10;97444.00;;;;5049678;28;20439;-87
2023/01/29 05:14:25;;;;;;;11.63;8.13;;;-2.60;99.90;-2.00;97443.00;;;;5031286;28;20436;-87
2023/01/29 05:17:18;;;;;;;10.63;8.00;;;-2.60;99.90;-1.90;97446.00;;;;5031825;28;20460;-88
2023/01/29 05:20:09;;;;;;;15.03;10.03;;;-0.40;99.90;-2.10;97435.00;;;;5030649;28;20440;-88
2023/01/29 05:22:58;;;;;;;11.03;6.63;;;-2.70;99.90;-2.40;97457.00;;;;5033329;28;20959;-88
2023/01/29 05:25:48;;;;;;;6.07;5.30;;;-0.80;99.90;-2.40;97440.00;;;;5052123;28;20438;-86
2023/01/29 05:28:36;;;;;;;8.47;5.40;;;-0.10;99.90;-2.40;97445.00;;;;5049943;28;20428;-88
2023/01/29 05:31:26;;;;;;;7.27;5.00;;;-0.50;99.90;-2.10;97437.00;;;;5052605;28;20447;-88
2023/01/29 05:34:15;;;;;;;2.77;2.53;;;-2.90;99.90;-2.70;97423.00;;;;5046853;28;21004;-85
2023/01/29 05:37:04;;;;;;;7.17;5.50;;;-2.90;99.90;-2.50;97438.00;;;;5042876;28;20532;-86
2023/01/29 05:39:53;;;;;;;9.53;6.87;;;-2.60;99.90;-1.90;97437.00;;;;5043873;28;20424;-86
2023/01/29 05:42:42;;;;;;;7.67;5.60;;;-0.30;99.90;-2.20;97430.00;;;;5031361;28;20452;-86
2023/01/29 05:45:31;;;;;;;7.73;6.03;;;-0.80;99.90;-2.30;97438.00;;;;5022966;28;20413;-85
2023/01/29 05:48:22;;;;;;;9.50;6.93;;;-2.50;99.90;-2.30;97437.00;;;;5028772;28;20428;-85
2023/01/29 05:51:10;;;;;;;9.07;6.67;;;-2.10;99.90;-2.40;97441.00;;;;5031347;28;20444;-86
2023/01/29 05:53:59;;;;;;;9.47;6.13;;;-3.00;99.90;-2.30;97449.00;;;;5030605;28;20472;-88
2023/01/29 05:56:48;;;;;;;7.93;5.53;;;-0.40;99.90;-2.40;97444.00;;;;5021778;28;21125;-86
2023/01/29 05:59:37;;;;;;;10.60;6.07;;;-2.90;99.90;-2.30;97459.00;;;;5030384;28;20940;-88
2023/01/29 06:02:26;;;;;;;6.50;5.77;;;-1.70;99.90;-2.40;97458.00;;;;5030918;28;20452;-87
2023/01/29 06:05:16;;;;;;;4.97;4.33;;;-2.90;99.90;-2.50;97464.00;;;;5041566;28;20439;-88
2023/01/29 06:08:07;;;;;;;6.37;4.67;;;-3.00;99.90;-2.90;97462.00;;;;5042173;28;20439;-85
2023/01/29 06:10:55;;;;;;;11.77;5.77;;;-3.10;99.90;-2.70;97463.00;;;;5031395;28;20961;-87
2023/01/29 06:13:45;;;;;;;6.87;5.30;;;-2.20;99.90;-2.60;97482.00;;;;5029834;28;20439;-87
2023/01/29 06:16:34;;;;;;;8.57;5.10;;;-3.30;99.90;-2.70;97462.00;;;;5031410;28;20947;-87
2023/01/29 06:19:23;;;;;;;7.87;6.10;;;-1.90;99.90;-2.30;97472.00;;;;5042046;28;20511;-87
2023/01/29 06:22:13;;;;;;;16.33;8.37;;;-2.30;99.90;-2.10;97471.00;;;;5031174;28;20452;-86
2023/01/29 06:25:02;;;;;;;7.57;5.73;;;-3.10;99.90;-2.30;97464.00;;;;5030406;28;20431;-85
2023/01/29 06:27:51;;;;;;;6.43;5.00;;;-2.80;99.90;-2.50;97467.00;;;;5029465;28;20483;-86
2023/01/29 06:30:40;;;;;;;7.63;5.37;;;-0.20;99.90;-2.70;97448.00;;;;5028344;28;20429;-86
2023/01/29 06:33:28;;;;;;;7.03;4.63;;;-0.80;99.90;-2.60;97465.00;;;;5029987;28;20860;-86
2023/01/29 06:36:17;;;;;;;10.17;7.53;;;-1.30;99.90;-2.50;97473.00;;;;5030081;28;20502;-86
2023/01/29 06:39:07;;;;;;;9.30;6.50;;;-3.20;99.90;-2.50;97473.00;;;;5028769;28;20459;-86
2023/01/29 06:41:56;;;;;;;9.87;6.87;;;-2.00;99.90;-2.40;97481.00;;;;5030799;28;20538;-85
2023/01/29 06:44:45;;;;;;;3.33;2.70;;;-2.30;99.90;-2.50;97486.00;;;;5026945;28;20428;-87
2023/01/29 06:47:34;;;;;;;9.43;8.37;;;-3.20;99.90;-2.60;97468.00;;;;5030453;28;20424;-87
2023/01/29 06:50:23;;;;;;;5.83;5.30;;;-1.90;99.90;-2.60;97482.00;;;;5031178;28;20432;-86
2023/01/29 06:53:12;;;;;;;11.53;6.07;;;-3.10;99.90;-2.80;97483.00;;;;5019784;28;20417;-86
2023/01/29 06:56:03;;;;;;;10.57;6.00;;;-2.00;99.90;-2.30;97493.00;;;;5029173;28;20429;-85
2023/01/29 06:58:51;;;;;;;8.10;5.67;;;-1.90;99.90;-2.20;97485.00;;;;5028783;28;20960;-88
2023/01/29 07:01:42;;;;;;;7.73;6.40;;;-0.90;99.90;-2.20;97483.00;;;;5018693;28;20874;-87
2023/01/29 07:04:34;;;;;;;5.07;4.20;;;-1.80;99.90;-2.20;97477.00;;;;5028624;28;20441;-86
2023/01/29 07:07:32;;;;;;;8.80;5.20;;;-3.00;99.90;-2.30;97476.00;;;;5028630;28;20424;-88
2023/01/29 07:10:21;;;;;;;6.30;3.37;;;-1.50;99.90;-2.60;97481.00;;;;5013036;28;20429;-87
2023/01/29 07:13:11;;;;;;;3.67;3.20;;;-3.00;99.90;-2.70;97473.00;;;;5023404;28;20467;-86
2023/01/29 07:16:01;;;;;;;6.97;5.93;;;-1.50;99.90;-2.40;97460.00;;;;5029611;28;20429;-86
2023/01/29 07:18:51;;;;;;;8.70;4.83;;;-2.90;99.90;-1.80;97485.00;;;;5026693;28;20468;-86
2023/01/29 07:21:40;;;;;;;17.87;10.03;;;-0.70;99.90;-1.60;97480.00;;;;5025039;28;20909;-88
2023/01/29 07:24:30;;;;;;;13.13;9.97;;;-2.00;99.90;-1.50;97467.00;;;;5032283;28;20424;-86
2023/01/29 07:27:19;;;;;;;15.67;12.33;;;-1.20;99.90;-1.20;97474.00;;;;5032333;28;20436;-88
2023/01/29 07:30:11;;;;;;;9.13;6.53;;;-0.20;99.90;-1.50;97469.00;;;;5027207;28;20459;-85
2023/01/29 07:33:03;;;;;;;8.43;5.87;;;-2.40;99.90;-1.80;97458.00;;;;5022273;28;20852;-88
2023/01/29 07:35:54;;;;;;;10.87;7.53;;;-0.80;99.90;-1.50;97450.00;;;;5022678;28;20421;-89
2023/01/29 07:38:43;;;;;;;13.87;8.17;;;-0.60;99.90;-1.00;97474.00;;;;5031059;28;20468;-86
2023/01/29 07:41:32;;;;;;;13.00;9.97;;;0.20;99.90;-0.70;97471.00;;;;5024023;28;20463;-87
2023/01/29 07:44:21;;;;;;;15.83;9.73;;;-0.90;99.90;-0.60;97466.00;;;;5027227;28;20428;-89
2023/01/29 07:47:12;;;;;;;12.27;7.53;;;0.80;99.90;-0.50;97463.00;;;;5028672;28;20459;-86
2023/01/29 07:50:03;;;;;;;12.33;8.00;;;-1.90;99.90;-0.40;97452.00;;;;5034995;28;20447;-86
2023/01/29 07:52:54;;;;;;;13.30;9.47;;;0.20;99.90;-0.30;97447.00;;;;5035324;28;20440;-87
2023/01/29 07:55:45;;;;;;;14.37;9.27;;;0.90;99.90;-0.30;97457.00;;;;5032137;28;20437;-85
2023/01/29 07:58:34;;;;;;;19.20;10.57;;;0.10;99.90;0.00;97465.00;;;;5029492;28;20975;-89
2023/01/29 08:01:24;;;;;;;43.70;20.13;;;0.30;99.90;0.20;97465.00;;;;5026566;28;20848;-87
2023/01/29 08:04:14;;;;;;;66.87;24.53;;;0.70;99.90;0.40;97473.00;;;;5025252;28;20483;-87
2023/01/29 08:07:10;;;;;;;70.03;26.07;;;0.20;99.90;0.40;97468.00;;;;5029909;28;20460;-87
2023/01/29 08:09:59;;;;;;;107.00;43.43;;;1.00;99.90;0.40;97465.00;;;;5012735;28;20432;-87
2023/01/29 08:12:48;;;;;;;62.23;27.13;;;0.70;99.90;0.20;97469.00;;;;5031950;28;20448;-87
2023/01/29 08:15:37;;;;;;;71.73;35.53;;;-0.50;99.90;0.30;97463.00;;;;5024212;28;20477;-88
2023/01/29 08:18:27;;;;;;;111.13;53.33;;;0.20;99.90;0.40;97464.00;;;;5030941;28;20468;-87
2023/01/29 08:21:17;;;;;;;20.60;14.73;;;-0.70;99.90;0.20;97467.00;;;;5021211;28;20449;-88
2023/01/29 08:24:07;;;;;;;11.17;8.50;;;1.20;99.90;0.40;97463.00;;;;5029547;28;20431;-87
2023/01/29 08:26:55;;;;;;;12.87;8.07;;;-0.70;99.90;0.60;97474.00;;;;5028592;28;20532;-87
2023/01/29 08:29:51;;;;;;;10.87;7.83;;;-0.60;99.90;0.70;97469.00;;;;5029238;28;20416;-87
2023/01/29 08:32:40;;;;;;;11.17;6.57;;;0.60;99.90;0.70;97469.00;;;;5030914;28;20463;-88
2023/01/29 08:35:29;;;;;;;8.23;6.00;;;1.30;99.90;0.70;97473.00;;;;5031257;28;20789;-88
2023/01/29 08:38:19;;;;;;;8.27;6.77;;;1.20;99.90;0.80;97470.00;;;;5025038;28;20475;-86
2023/01/29 08:41:08;;;;;;;11.27;7.70;;;0.70;99.90;0.80;97475.00;;;;5033537;28;20796;-89
2023/01/29 08:43:59;;;;;;;8.63;6.43;;;1.50;99.90;1.20;97464.00;;;;5031805;28;20436;-87
2023/01/29 08:46:48;;;;;;;12.30;7.40;;;0.20;99.90;1.10;97476.00;;;;5028820;28;20419;-89
2023/01/29 08:49:37;;;;;;;10.43;6.47;;;1.50;99.90;1.40;97470.00;;;;5031994;28;20436;-89
2023/01/29 08:52:25;;;;;;;10.30;7.30;;;0.90;99.90;1.40;97479.00;;;;5038784;28;20443;-87
2023/01/29 08:55:16;;;;;;;18.60;12.00;;;3.20;99.90;1.10;97469.00;;;;5032552;28;20424;-87
2023/01/29 08:58:06;;;;;;;13.77;9.53;;;0.40;99.90;1.70;97479.00;;;;5026401;28;20533;-87
2023/01/29 09:00:55;;;;;;;10.73;7.23;;;0.70;99.90;1.70;97484.00;;;;5016198;28;20467;-89
2023/01/29 09:03:44;;;;;;;13.33;6.30;;;3.30;99.90;1.40;97493.00;;;;5045431;28;20431;-87
2023/01/29 09:06:34;;;;;;;7.93;7.00;;;1.50;99.90;1.30;97488.00;;;;5026402;28;21062;-88
2023/01/29 09:09:23;;;;;;;8.70;7.23;;;0.40;99.90;1.40;97493.00;;;;5027564;28;20424;-86
2023/01/29 09:12:13;;;;;;;13.17;7.07;;;0.80;99.90;1.90;97493.00;;;;5029816;28;20444;-88
2023/01/29 09:15:02;;;;;;;10.00;6.63;;;2.40;99.90;1.90;97483.00;;;;5025738;28;20420;-87
2023/01/29 09:17:51;;;;;;;12.40;8.13;;;1.10;99.90;2.20;97495.00;;;;5030543;28;20429;-89
2023/01/29 09:20:40;;;;;;;7.87;4.73;;;4.00;99.90;2.20;97494.00;;;;5032075;28;20456;-86
2023/01/29 09:23:30;;;;;;;8.87;6.13;;;1.80;99.90;1.90;97493.00;;;;5037437;28;20806;-88
2023/01/29 09:26:18;;;;;;;5.77;4.03;;;1.10;99.90;1.80;97498.00;;;;5035668;28;20447;-87
2023/01/29 09:29:10;;;;;;;10.63;5.70;;;1.00;99.90;1.50;97495.00;;;;5027836;28;20472;-87
2023/01/29 09:31:59;;;;;;;9.83;7.07;;;0.90;99.90;1.60;97504.00;;;;5045148;28;20451;-88
2023/01/29 09:34:48;;;;;;;8.93;5.67;;;1.00;99.90;1.60;97519.00;;;;5042944;28;20455;-87
2023/01/29 09:37:37;;;;;;;9.80;6.53;;;1.10;99.90;1.30;97515.00;;;;5032156;28;20427;-87
2023/01/29 09:40:31;;;;;;;7.00;5.20;;;0.70;99.90;1.40;97518.00;;;;5031449;28;21075;-87
2023/01/29 09:43:23;;;;;;;8.67;6.53;;;1.20;99.90;1.50;97505.00;;;;5030102;28;20440;-86
2023/01/29 09:46:21;;;;;;;7.60;5.80;;;3.40;99.90;1.20;97505.00;;;;5023435;28;20436;-87
2023/01/29 09:49:18;;;;;;;9.50;4.97;;;1.70;99.90;1.20;97504.00;;;;5029188;28;20428;-88
2023/01/29 09:52:16;;;;;;;8.13;5.00;;;0.50;99.90;1.40;97501.00;;;;5050908;28;20837;-87
2023/01/29 09:55:12;;;;;;;7.50;6.37;;;0.40;99.90;1.90;97504.00;;;;5035326;28;20443;-87
2023/01/29 09:58:12;;;;;;;9.57;6.20;;;0.50;99.90;1.70;97504.00;;;;5028827;28;20483;-88
2023/01/29 10:01:18;;;;;;;8.40;5.33;;;0.90;99.90;1.70;97514.00;;;;5022775;28;20985;-87
2023/01/29 10:04:50;;;;;;;9.43;6.27;;;0.80;99.90;1.50;97489.00;;;;5029950;28;20433;-86
2023/01/29 10:08:18;;;;;;;9.77;6.13;;;0.70;99.90;2.30;97492.00;;;;5048757;28;21145;-86
2023/01/29 10:11:18;;;;;;;5.87;5.33;;;1.90;99.90;2.50;97493.00;;;;5041947;28;20536;-86
2023/01/29 10:14:18;;;;;;;6.33;4.30;;;1.30;99.90;2.10;97484.00;;;;5027517;28;20412;-86
2023/01/29 10:17:30;;;;;;;6.63;4.80;;;3.50;99.90;1.90;97501.00;;;;5034932;28;20435;-86
2023/01/29 10:20:47;;;;;;;6.17;5.53;;;2.00;99.90;1.70;97494.00;;;;5033220;28;20474;-87
2023/01/29 10:23:40;;;;;;;5.27;4.77;;;2.20;99.90;2.50;97482.00;;;;5045661;28;20431;-87
2023/01/29 10:26:30;;;;;;;12.03;7.50;;;2.70;99.90;2.70;97481.00;;;;5052244;28;20423;-87
2023/01/29 10:29:22;;;;;;;7.00;5.27;;;1.60;99.90;2.40;97472.00;;;;5039282;28;20435;-88
2023/01/29 10:32:18;;;;;;;7.13;4.27;;;1.70;99.90;2.40;97480.00;;;;5035950;28;20456;-88
2023/01/29 10:35:22;;;;;;;6.67;4.80;;;1.70;99.90;2.80;97464.00;;;;5032455;28;20498;-86
2023/01/29 10:38:27;;;;;;;7.73;5.80;;;1.50;99.90;2.80;97465.00;;;;5030498;28;20435;-87
2023/01/29 10:41:45;;;;;;;9.23;6.07;;;1.80;99.90;4.40;97470.00;;;;5035640;28;20474;-88
2023/01/29 10:44:47;;;;;;;10.33;6.27;;;2.50;99.90;5.70;97477.00;;;;5030765;28;20439;-88
2023/01/29 10:48:22;;;;;;;8.37;6.50;;;3.90;99.90;6.10;97484.00;;;;5031336;28;20533;-89
2023/01/29 10:51:32;;;;;;;9.90;6.23;;;5.40;99.90;6.90;97474.00;;;;5036910;28;20463;-86
2023/01/29 10:54:41;;;;;;;7.93;6.10;;;6.20;99.90;8.00;97487.00;;;;5033987;28;20208;-89
2023/01/29 10:57:52;;;;;;;8.97;6.50;;;7.20;99.90;8.10;97475.00;;;;5034408;28;20209;-87
2023/01/29 11:00:42;;;;;;;9.07;6.43;;;8.30;99.90;8.50;97465.00;;;;5032571;28;20212;-87
2023/01/29 11:03:34;;;;;;;9.57;6.20;;;8.70;99.90;9.10;97463.00;;;;5016887;28;20201;-87
2023/01/29 11:06:28;;;;;;;7.70;6.33;;;9.30;99.90;9.30;97465.00;;;;5040780;28;20561;-89
2023/01/29 11:09:28;;;;;;;10.83;6.57;;;11.40;99.90;9.60;97468.00;;;;5049696;28;20211;-88
2023/01/29 11:12:25;;;;;;;10.53;7.43;;;10.00;99.90;9.80;97468.00;;;;5043328;28;20718;-86
2023/01/29 11:15:20;;;;;;;9.83;6.40;;;9.90;99.90;9.70;97459.00;;;;5046989;28;20338;-86
2023/01/29 11:18:14;;;;;;;9.20;6.53;;;10.00;99.60;10.60;97472.00;;;;5050258;28;20205;-86
2023/01/29 11:21:05;;;;;;;10.30;6.90;;;10.20;99.90;10.40;97481.00;;;;5031619;28;20208;-87
2023/01/29 11:24:16;;;;;;;9.23;6.70;;;10.40;99.60;9.50;97468.00;;;;5036529;28;20693;-87
2023/01/29 11:27:16;;;;;;;8.33;6.73;;;10.20;97.00;9.20;97453.00;;;;5040486;28;20204;-86
2023/01/29 11:30:10;;;;;;;8.33;6.87;;;9.80;97.40;9.30;97450.00;;;;5031365;28;20220;-85
2023/01/29 11:33:12;;;;;;;8.90;7.37;;;9.50;98.20;10.20;97442.00;;;;5033097;28;20222;-87
2023/01/29 11:36:27;;;;;;;8.97;6.67;;;9.40;99.50;10.70;97477.00;;;;5031687;28;20225;-85
2023/01/29 11:39:20;;;;;;;12.13;7.20;;;9.70;99.90;9.60;97432.00;;;;5042994;28;20204;-87
2023/01/29 11:42:20;;;;;;;8.20;7.07;;;9.50;98.40;10.50;97423.00;;;;5043429;28;20232;-87
2023/01/29 11:45:26;;;;;;;7.50;6.67;;;9.50;99.20;10.30;97458.00;;;;5035353;28;20200;-88
2023/01/29 11:48:20;;;;;;;9.87;7.97;;;9.50;98.70;9.80;97418.00;;;;5032193;28;20213;-86
2023/01/29 11:51:12;;;;;;;9.77;7.23;;;9.30;97.90;10.60;97444.00;;;;5034932;28;20275;-87
2023/01/29 11:54:05;;;;;;;9.33;6.93;;;9.30;98.70;7.30;97380.00;;;;5033464;28;20207;-85
2023/01/29 11:56:54;;;;;;;8.60;5.80;;;8.80;95.50;5.20;97403.00;;;;5038984;28;20200;-85
2023/01/29 11:59:48;;;;;;;6.73;5.67;;;7.30;96.20;4.50;97384.00;;;;5033574;28;20248;-86
2023/01/29 12:02:42;;;;;;;8.27;5.77;;;6.10;98.10;4.60;97407.00;;;;5033745;28;20221;-86
2023/01/29 12:05:31;;;;;;;10.03;7.40;;;5.20;99.40;5.10;97404.00;;;;5039379;28;20224;-86
2023/01/29 12:08:22;;;;;;;8.77;6.90;;;4.80;99.90;4.30;97401.00;;;;5036979;28;20213;-84
2023/01/29 12:11:16;;;;;;;7.63;5.27;;;4.50;99.90;3.80;97383.00;;;;5039300;28;20229;-85
2023/01/29 12:14:27;;;;;;;11.33;6.60;;;4.00;99.90;4.90;97414.00;;;;5030609;28;20588;-86
2023/01/29 12:17:22;;;;;;;6.50;5.47;;;4.00;99.90;4.30;97379.00;;;;5034701;28;20654;-85
2023/01/29 12:20:15;;;;;;;6.83;5.53;;;3.80;99.90;5.30;97349.00;;;;5031060;28;20209;-85
2023/01/29 12:23:19;;;;;;;6.00;4.90;;;4.10;99.90;6.10;97413.00;;;;5033613;28;20642;-86
2023/01/29 12:26:14;;;;;;;9.37;5.33;;;4.50;99.90;5.70;97413.00;;;;5032363;28;20213;-85
2023/01/29 12:29:24;;;;;;;7.23;5.90;;;4.70;99.90;5.20;97400.00;;;;5034515;28;20676;-86
2023/01/29 12:32:27;;;;;;;7.20;6.00;;;5.10;99.90;4.90;97392.00;;;;5033142;28;20691;-85
2023/01/29 12:35:23;;;;;;;7.67;5.10;;;4.60;99.90;4.50;97391.00;;;;5033117;28;20200;-85
2023/01/29 12:38:18;;;;;;;9.27;6.27;;;4.30;99.90;5.00;97391.00;;;;5028422;28;20228;-85
2023/01/29 12:41:22;;;;;;;8.67;6.30;;;4.10;99.90;4.90;97386.00;;;;5044831;28;20295;-86
2023/01/29 12:44:17;;;;;;;15.43;6.57;;;4.10;99.90;5.40;97372.00;;;;5036545;28;20196;-86
2023/01/29 12:47:10;;;;;;;10.57;6.13;;;4.10;99.90;5.70;97379.00;;;;5028082;28;20669;-85
2023/01/29 12:50:05;;;;;;;7.43;5.97;;;4.20;99.90;5.40;97377.00;;;;5029781;28;20224;-86
2023/01/29 12:52:58;;;;;;;8.30;6.23;;;4.20;99.90;5.40;97364.00;;;;5032693;28;20812;-85
2023/01/29 12:55:54;;;;;;;10.43;5.47;;;4.20;99.90;4.60;97358.00;;;;5041305;28;20205;-84
2023/01/29 12:58:47;;;;;;;5.20;4.70;;;5.00;99.90;4.30;97360.00;;;;5032397;28;20229;-84
2023/01/29 13:01:44;;;;;;;7.37;5.63;;;4.00;99.90;5.00;97321.00;;;;5039212;28;20640;-86
2023/01/29 13:04:41;;;;;;;10.80;5.60;;;3.80;99.90;4.30;97349.00;;;;5055696;28;20236;-84
2023/01/29 13:07:36;;;;;;;6.87;6.03;;;3.80;99.90;5.50;97329.00;;;;5055449;28;20286;-85
2023/01/29 13:10:29;;;;;;;6.80;5.27;;;3.90;99.90;4.90;97349.00;;;;5055981;28;20552;-85
2023/01/29 13:13:28;;;;;;;5.90;4.97;;;4.10;99.90;4.30;97320.00;;;;5041134;28;20201;-84
2023/01/29 13:16:22;;;;;;;6.53;5.03;;;4.10;99.90;5.00;97316.00;;;;5043758;28;20205;-84
2023/01/29 13:19:22;;;;;;;5.67;4.87;;;3.90;99.90;3.50;97307.00;;;;5055850;28;20622;-84
2023/01/29 13:22:20;;;;;;;10.03;6.10;;;5.10;99.90;4.40;97333.00;;;;5053805;28;20229;-84